KDBN/DBN METAR and TAF weather

Enter ICAO airport designator
Station Type Date Time Source
KDBN METAR 2021/03/01 22:55 UTC NOAA

KDBN 012255Z AUTO 33005KT 10SM BKN070 OVC090 19/09 A3011 RMK AO2


Station Type Date Time Source
KDBN Decoded METAR 2021/03/01 22:55 UTC NOAA

Dublin, W H 'Bud' Barron Airport, GA, United States (KDBN) 32-33-52N 082-59-06W
Mar 01, 2021 - 05:55 PM EST / 2021.03.01 2255 UTC
Wind: from the NNW (330 degrees) at 6 MPH (5 KT):0
Visibility: 10 mile(s):0
Sky conditions: overcast
Temperature: 66 F (19 C)
Dew Point: 48 F (9 C)
Relative Humidity: 52%
Pressure (altimeter): 30.11 in. Hg (1019 hPa)
ob: KDBN 012255Z AUTO 33005KT 10SM BKN070 OVC090 19/09 A3011 RMK AO2
cycle: 23

Station Type Date Time Source
KDBN TAF UTC NOAA

Error!

Example: see airport list